createdAt,value
2022-09-15T00:00:28.522Z,0.73
2022-09-15T00:02:56.199Z,0.90
2022-09-15T00:05:23.497Z,1.00
2022-09-15T00:07:50.516Z,1.00
2022-09-15T00:10:17.787Z,0.85
2022-09-15T00:12:44.781Z,1.13
2022-09-15T00:15:14.607Z,1.17
2022-09-15T00:17:42.538Z,1.25
2022-09-15T00:20:10.299Z,0.85
2022-09-15T00:22:37.479Z,0.73
2022-09-15T00:25:05.995Z,1.20
2022-09-15T00:27:33.739Z,0.77
2022-09-15T00:30:00.711Z,0.90
2022-09-15T00:32:27.705Z,0.73
2022-09-15T00:34:54.636Z,1.95
2022-09-15T00:37:21.578Z,1.40
2022-09-15T00:39:48.730Z,1.13
2022-09-15T00:42:20.367Z,1.65
2022-09-15T00:44:56.506Z,0.80
2022-09-15T00:47:30.143Z,0.93
2022-09-15T00:50:03.135Z,0.90
2022-09-15T00:52:36.583Z,0.98
2022-09-15T00:55:20.219Z,1.15
2022-09-15T00:58:08.041Z,1.27
2022-09-15T01:00:35.068Z,1.23
2022-09-15T01:03:02.030Z,1.90
2022-09-15T01:05:37.322Z,1.40
2022-09-15T01:08:19.021Z,1.20
2022-09-15T01:10:46.820Z,1.60
2022-09-15T01:13:14.511Z,1.63
2022-09-15T01:15:47.631Z,1.40
2022-09-15T01:18:22.208Z,1.02
2022-09-15T01:21:03.826Z,1.35
2022-09-15T01:24:21.052Z,1.50
2022-09-15T01:26:58.190Z,1.57
2022-09-15T01:29:25.204Z,2.28
2022-09-15T01:32:23.537Z,1.25
2022-09-15T01:35:09.308Z,1.30
2022-09-15T01:37:38.402Z,2.47
2022-09-15T01:40:06.118Z,1.50
2022-09-15T01:42:33.064Z,2.22
2022-09-15T01:45:03.911Z,2.38
2022-09-15T01:47:31.004Z,2.17
2022-09-15T01:50:11.924Z,2.13
2022-09-15T01:52:41.230Z,2.40
2022-09-15T01:55:15.905Z,2.47
2022-09-15T01:57:42.978Z,2.28
2022-09-15T02:00:10.975Z,2.13
2022-09-15T02:02:48.763Z,2.75
2022-09-15T02:05:32.233Z,2.50
2022-09-15T02:08:05.017Z,2.40
2022-09-15T02:10:46.051Z,2.88
2022-09-15T02:13:17.018Z,1.92
2022-09-15T02:15:52.634Z,2.55
2022-09-15T02:18:34.748Z,2.72
2022-09-15T02:21:08.776Z,3.00
2022-09-15T02:23:40.861Z,3.13
2022-09-15T02:26:09.952Z,1.90
2022-09-15T02:28:38.559Z,2.28
2022-09-15T02:31:08.653Z,2.17
2022-09-15T02:33:37.245Z,2.33
2022-09-15T02:36:04.346Z,2.35
2022-09-15T02:38:34.633Z,2.80
2022-09-15T02:41:01.611Z,2.90
2022-09-15T02:43:29.087Z,2.00
2022-09-15T02:45:56.168Z,2.65
2022-09-15T02:48:25.216Z,2.67
2022-09-15T02:50:52.232Z,2.53
2022-09-15T02:53:19.136Z,2.67
2022-09-15T02:55:46.271Z,3.20
2022-09-15T02:58:13.204Z,2.83
2022-09-15T03:00:40.199Z,2.58
2022-09-15T03:03:07.220Z,3.03
2022-09-15T03:05:34.204Z,2.63
2022-09-15T03:08:02.252Z,2.45
2022-09-15T03:10:29.161Z,2.85
2022-09-15T03:12:56.133Z,2.63
2022-09-15T03:15:24.467Z,2.65
2022-09-15T03:17:51.839Z,2.33
2022-09-15T03:20:20.908Z,2.90
2022-09-15T03:22:48.132Z,3.03
2022-09-15T03:25:15.780Z,2.53
2022-09-15T03:27:42.927Z,2.92
2022-09-15T03:30:10.456Z,2.58
2022-09-15T03:32:37.568Z,2.22
2022-09-15T03:35:05.254Z,2.88
2022-09-15T03:37:32.266Z,2.80
2022-09-15T03:39:59.461Z,2.47
2022-09-15T03:42:26.814Z,2.78
2022-09-15T03:44:53.765Z,2.70
2022-09-15T03:47:20.648Z,2.65
2022-09-15T03:49:47.667Z,2.30
2022-09-15T03:52:14.627Z,2.95
2022-09-15T03:54:42.033Z,3.10
2022-09-15T03:57:08.946Z,2.00
2022-09-15T03:59:35.933Z,2.70
2022-09-15T04:02:03.002Z,2.25
2022-09-15T04:04:29.990Z,2.15
2022-09-15T04:06:57.004Z,1.80
2022-09-15T04:09:28.005Z,2.70
2022-09-15T04:11:56.845Z,2.40
2022-09-15T04:14:23.844Z,2.60
2022-09-15T04:16:50.778Z,2.50
2022-09-15T04:19:17.852Z,2.60
2022-09-15T04:21:45.747Z,2.78
2022-09-15T04:24:12.771Z,2.35
2022-09-15T04:26:39.883Z,2.65
2022-09-15T04:29:13.311Z,2.88
2022-09-15T04:31:40.437Z,2.38
2022-09-15T04:34:07.445Z,2.65
2022-09-15T04:36:34.486Z,2.70
2022-09-15T04:39:01.485Z,2.67
2022-09-15T04:41:28.807Z,2.28
2022-09-15T04:43:55.933Z,1.83
2022-09-15T04:46:22.869Z,2.00
2022-09-15T04:48:50.003Z,1.60
2022-09-15T04:51:18.884Z,1.25
2022-09-15T04:53:46.045Z,2.10
2022-09-15T04:56:14.874Z,1.20
2022-09-15T04:58:43.409Z,1.65
2022-09-15T05:01:14.720Z,1.48
2022-09-15T05:03:42.392Z,1.08
2022-09-15T05:06:11.238Z,1.40
2022-09-15T05:08:38.174Z,1.35
2022-09-15T05:11:10.018Z,1.27
2022-09-15T05:13:37.651Z,0.95
2022-09-15T05:16:09.522Z,1.33
2022-09-15T05:18:36.471Z,0.82
2022-09-15T05:21:04.316Z,0.82
2022-09-15T05:23:31.627Z,1.70
2022-09-15T05:25:59.239Z,1.13
2022-09-15T05:28:26.352Z,0.70
2022-09-15T05:30:54.002Z,0.73
2022-09-15T05:33:21.543Z,0.70
2022-09-15T05:35:52.943Z,0.77
2022-09-15T05:38:20.048Z,1.20
2022-09-15T05:40:47.162Z,0.70
2022-09-15T05:43:14.176Z,0.50
2022-09-15T05:45:44.321Z,1.20
2022-09-15T05:48:11.801Z,0.88
2022-09-15T05:50:39.309Z,0.98
2022-09-15T05:53:07.469Z,0.45
2022-09-15T05:55:38.009Z,0.52
2022-09-15T05:58:04.944Z,0.95
2022-09-15T06:00:31.963Z,1.10
2022-09-15T06:02:58.966Z,0.85
2022-09-15T06:05:26.142Z,0.45
2022-09-15T06:07:54.567Z,0.52
2022-09-15T06:10:25.247Z,0.77
2022-09-15T06:12:55.583Z,0.50
2022-09-15T06:15:23.615Z,0.47
2022-09-15T06:17:50.774Z,0.57
2022-09-15T06:20:18.660Z,0.60
2022-09-15T06:22:48.887Z,0.75
2022-09-15T06:25:16.012Z,0.80
2022-09-15T06:27:44.157Z,0.50
2022-09-15T06:30:11.754Z,0.30
2022-09-15T06:32:44.171Z,0.40
2022-09-15T06:35:15.209Z,0.68
2022-09-15T06:37:42.352Z,0.70
2022-09-15T06:40:10.245Z,0.30
2022-09-15T06:42:37.586Z,0.60
2022-09-15T06:45:05.157Z,0.45
2022-09-15T06:47:34.098Z,0.60
2022-09-15T06:50:01.485Z,0.50
2022-09-15T06:52:28.569Z,0.40
2022-09-15T06:54:55.827Z,0.30
2022-09-15T06:57:23.124Z,0.52
2022-09-15T06:59:50.099Z,0.40
2022-09-15T07:02:22.712Z,0.32
2022-09-15T07:04:49.953Z,0.40
2022-09-15T07:07:17.247Z,0.75
2022-09-15T07:09:48.421Z,0.32
2022-09-15T07:12:16.048Z,0.60
2022-09-15T07:14:43.009Z,0.40
2022-09-15T07:17:10.157Z,0.35
2022-09-15T07:19:38.526Z,0.30
2022-09-15T07:22:05.664Z,0.30
2022-09-15T07:24:32.616Z,0.28
2022-09-15T07:27:01.125Z,0.40
2022-09-15T07:29:28.138Z,0.43
2022-09-15T07:31:55.448Z,0.45
2022-09-15T07:34:23.794Z,0.28
2022-09-15T07:36:50.719Z,0.60
2022-09-15T07:39:21.605Z,0.25
2022-09-15T07:41:48.632Z,0.30
2022-09-15T07:44:15.831Z,0.47
2022-09-15T07:46:43.037Z,0.45
2022-09-15T07:49:10.435Z,0.30
2022-09-15T07:51:37.441Z,0.40
2022-09-15T07:54:05.309Z,0.50
2022-09-15T07:56:33.381Z,0.47
2022-09-15T07:59:00.380Z,0.52
2022-09-15T08:01:27.546Z,0.30
2022-09-15T08:03:54.703Z,0.50
2022-09-15T08:06:22.843Z,0.60
2022-09-15T08:08:51.750Z,0.40
2022-09-15T08:11:21.289Z,0.38
2022-09-15T08:13:49.496Z,0.80
2022-09-15T08:16:20.705Z,2.40
2022-09-15T08:18:47.945Z,0.73
2022-09-15T08:21:17.693Z,0.45
2022-09-15T08:23:44.830Z,0.38
2022-09-15T08:26:14.444Z,0.32
2022-09-15T08:28:42.036Z,0.38
2022-09-15T08:31:10.178Z,0.68
2022-09-15T08:33:38.958Z,0.40
2022-09-15T08:36:12.518Z,0.43
2022-09-15T08:38:40.725Z,0.25
2022-09-15T08:41:16.422Z,0.30
2022-09-15T08:44:20.237Z,0.65
2022-09-15T08:46:47.385Z,0.47
2022-09-15T08:49:40.984Z,0.60
2022-09-15T08:52:29.644Z,0.20
2022-09-15T08:54:58.201Z,0.77
2022-09-15T08:57:26.079Z,0.30
2022-09-15T08:59:54.498Z,0.20
2022-09-15T09:02:30.618Z,0.50
2022-09-15T09:04:58.657Z,0.30
2022-09-15T09:07:51.809Z,0.32
2022-09-15T09:10:37.855Z,0.50
2022-09-15T09:13:33.398Z,0.30
2022-09-15T09:16:03.863Z,0.40
2022-09-15T09:18:33.799Z,0.22
2022-09-15T09:21:16.832Z,0.45
2022-09-15T09:23:49.387Z,0.22
2022-09-15T09:26:16.403Z,0.20
2022-09-15T09:28:54.044Z,0.70
2022-09-15T09:31:22.273Z,0.38
2022-09-15T09:34:16.319Z,0.30
2022-09-15T09:36:43.463Z,0.38
2022-09-15T09:39:15.260Z,0.52
2022-09-15T09:41:42.798Z,0.15
2022-09-15T09:44:13.906Z,3.00
2022-09-15T09:46:42.328Z,1.02
2022-09-15T09:49:12.623Z,0.28
2022-09-15T09:52:03.638Z,0.80
2022-09-15T09:54:32.242Z,0.50
2022-09-15T09:57:15.124Z,0.30
2022-09-15T09:59:49.414Z,0.20
2022-09-15T10:02:18.435Z,0.30
2022-09-15T10:04:47.204Z,0.77
2022-09-15T10:07:15.526Z,0.63
2022-09-15T10:09:58.958Z,0.25
2022-09-15T10:12:40.257Z,0.13
2022-09-15T10:15:08.305Z,0.30
2022-09-15T10:17:40.876Z,0.47
2022-09-15T10:20:28.178Z,0.30
2022-09-15T10:23:24.061Z,0.77
2022-09-15T10:26:00.350Z,0.82
2022-09-15T10:28:28.094Z,0.32
2022-09-15T10:31:07.418Z,0.30
2022-09-15T10:33:42.601Z,0.82
2022-09-15T10:36:19.270Z,0.30
2022-09-15T10:38:52.760Z,0.32
2022-09-15T10:41:30.034Z,0.25
2022-09-15T10:44:02.045Z,0.20
2022-09-15T10:46:55.387Z,0.32
2022-09-15T10:49:41.819Z,0.30
2022-09-15T10:55:42.171Z,0.20
2022-09-15T10:58:20.106Z,0.20
2022-09-15T11:01:25.257Z,0.10
2022-09-15T11:04:02.946Z,0.10
2022-09-15T11:06:34.938Z,0.73
2022-09-15T11:09:23.904Z,0.10
2022-09-15T11:12:31.815Z,0.10
2022-09-15T11:14:58.886Z,0.10
2022-09-15T11:17:36.607Z,0.10
2022-09-15T11:20:32.675Z,0.10
2022-09-15T11:23:09.831Z,0.00
2022-09-15T11:25:40.617Z,0.10
2022-09-15T11:28:26.780Z,0.10
2022-09-15T11:31:16.488Z,0.20
2022-09-15T11:34:17.826Z,0.10
2022-09-15T11:37:04.391Z,0.20
2022-09-15T11:39:35.969Z,0.20
2022-09-15T11:42:23.434Z,0.47
2022-09-15T11:44:51.711Z,0.10
2022-09-15T11:47:31.887Z,0.50
2022-09-15T11:50:11.839Z,0.50
2022-09-15T11:52:56.768Z,0.77
2022-09-15T11:55:37.556Z,0.15
2022-09-15T11:58:23.248Z,0.43
2022-09-15T12:01:08.948Z,0.20
2022-09-15T12:03:51.408Z,1.00
2022-09-15T12:07:05.641Z,0.28
2022-09-15T12:09:33.660Z,0.32
2022-09-15T12:12:05.887Z,0.30
2022-09-15T12:14:38.745Z,0.10
2022-09-15T12:17:06.410Z,0.10
2022-09-15T12:19:33.746Z,0.22
2022-09-15T12:22:18.569Z,0.17
2022-09-15T12:24:58.938Z,0.30
2022-09-15T12:27:28.113Z,0.10
2022-09-15T12:29:59.913Z,0.30
2022-09-15T12:32:30.897Z,0.03
2022-09-15T12:35:18.549Z,0.30
2022-09-15T12:37:48.989Z,0.10
2022-09-15T12:40:34.207Z,0.70
2022-09-15T12:43:15.929Z,0.15
2022-09-15T12:46:05.171Z,0.43
2022-09-15T12:48:33.727Z,0.90
2022-09-15T12:51:08.433Z,0.93
2022-09-15T12:53:38.638Z,1.30
2022-09-15T12:56:11.680Z,0.10
2022-09-15T12:58:47.847Z,0.10
2022-09-15T13:01:29.191Z,0.10
2022-09-15T13:03:59.271Z,0.15
2022-09-15T13:06:30.266Z,0.20
2022-09-15T13:09:05.460Z,0.00
2022-09-15T13:11:38.848Z,0.00
2022-09-15T13:14:10.635Z,0.10
2022-09-15T13:16:49.779Z,0.10
2022-09-15T13:19:27.115Z,0.28
2022-09-15T13:22:05.092Z,0.45
2022-09-15T13:24:59.225Z,0.03
2022-09-15T13:27:36.531Z,0.28
2022-09-15T13:30:29.396Z,1.40
2022-09-15T13:33:16.458Z,0.40
2022-09-15T13:35:52.842Z,0.95
2022-09-15T13:38:43.979Z,0.00
2022-09-15T13:44:27.887Z,0.10
2022-09-15T13:47:16.758Z,0.10
2022-09-15T13:50:05.890Z,0.10
2022-09-15T13:52:58.380Z,0.10
2022-09-15T13:55:34.175Z,0.10
2022-09-15T14:01:02.148Z,0.20
2022-09-15T14:03:37.058Z,0.10
2022-09-15T14:06:17.823Z,0.00
2022-09-15T14:08:46.550Z,0.10
2022-09-15T14:11:14.907Z,0.05
2022-09-15T14:13:44.984Z,0.17
2022-09-15T14:16:28.245Z,0.10
2022-09-15T14:18:57.545Z,0.40
2022-09-15T14:21:30.278Z,1.40
2022-09-15T14:23:59.418Z,0.63
2022-09-15T14:26:28.459Z,0.30
2022-09-15T14:28:59.991Z,0.55
2022-09-15T14:31:34.759Z,1.33
2022-09-15T14:34:02.830Z,0.10
2022-09-15T14:36:32.010Z,0.22
2022-09-15T14:39:16.482Z,0.20
2022-09-15T14:41:43.433Z,0.08
2022-09-15T14:47:28.325Z,0.10
2022-09-15T14:50:24.059Z,0.17
2022-09-15T14:52:58.765Z,0.05
2022-09-15T14:55:41.890Z,0.10
2022-09-15T14:58:15.922Z,0.17
2022-09-15T15:01:04.446Z,0.10
2022-09-15T15:03:33.973Z,0.10
2022-09-15T15:06:25.415Z,0.10
2022-09-15T15:08:58.291Z,0.20
2022-09-15T15:11:25.752Z,0.20
2022-09-15T15:13:52.973Z,0.20
2022-09-15T15:16:33.502Z,0.00
2022-09-15T15:19:00.662Z,0.52
2022-09-15T15:21:38.231Z,0.55
2022-09-15T15:24:14.842Z,0.28
2022-09-15T15:26:43.025Z,0.28
2022-09-15T15:29:40.340Z,0.10
2022-09-15T15:32:14.821Z,0.10
2022-09-15T15:34:53.465Z,0.10
2022-09-15T15:37:26.719Z,0.00
2022-09-15T15:39:54.940Z,0.05
2022-09-15T15:42:23.103Z,0.05
2022-09-15T15:45:03.749Z,0.52
2022-09-15T15:47:33.012Z,0.43
2022-09-15T15:50:13.630Z,0.85
2022-09-15T15:52:41.890Z,0.03
2022-09-15T15:55:13.735Z,0.15
2022-09-15T15:57:40.639Z,0.00
2022-09-15T16:00:30.437Z,0.50
2022-09-15T16:02:57.822Z,0.00
2022-09-15T16:05:29.147Z,0.10
2022-09-15T16:07:59.132Z,0.10
2022-09-15T16:10:28.120Z,0.10
2022-09-15T16:12:55.079Z,0.00
2022-09-15T16:15:24.476Z,0.00
2022-09-15T16:17:51.390Z,0.00
2022-09-15T16:20:23.852Z,0.20
2022-09-15T16:22:51.641Z,0.00
2022-09-15T16:25:36.745Z,0.05
2022-09-15T16:28:04.053Z,0.10
2022-09-15T16:30:31.325Z,0.00
2022-09-15T16:32:58.781Z,0.10
2022-09-15T16:35:55.044Z,0.00
2022-09-15T16:38:25.353Z,0.00
2022-09-15T16:40:52.323Z,0.00
2022-09-15T16:43:21.562Z,0.00
2022-09-15T16:45:49.239Z,0.10
2022-09-15T16:48:16.376Z,0.00
2022-09-15T16:51:01.691Z,0.05
2022-09-15T16:53:32.627Z,0.00
2022-09-15T16:56:01.376Z,0.00
2022-09-15T16:58:28.671Z,0.00
2022-09-15T17:00:56.612Z,0.00
2022-09-15T17:03:24.609Z,0.00
2022-09-15T17:05:55.653Z,0.03
2022-09-15T17:08:24.235Z,0.05
2022-09-15T17:10:52.914Z,0.10
2022-09-15T17:13:26.340Z,0.10
2022-09-15T17:15:56.542Z,0.10
2022-09-15T17:18:23.657Z,0.00
2022-09-15T17:20:50.708Z,0.00
2022-09-15T17:23:27.768Z,0.25
2022-09-15T17:25:59.209Z,0.00
2022-09-15T17:28:27.672Z,0.00
2022-09-15T17:30:58.968Z,0.00
2022-09-15T17:33:26.755Z,0.10
2022-09-15T17:35:53.715Z,0.00
2022-09-15T17:38:21.971Z,0.00
2022-09-15T17:40:50.222Z,0.00
2022-09-15T17:43:19.466Z,0.00
2022-09-15T17:45:46.788Z,0.00
2022-09-15T17:48:13.702Z,0.10
2022-09-15T17:50:41.784Z,0.10
2022-09-15T17:53:13.595Z,0.00
2022-09-15T17:55:44.713Z,0.00
2022-09-15T17:58:11.929Z,0.10
2022-09-15T18:00:40.445Z,0.00
2022-09-15T18:03:29.369Z,0.10
2022-09-15T18:05:57.009Z,0.03
2022-09-15T18:08:24.611Z,0.10
2022-09-15T18:10:51.666Z,0.10
2022-09-15T18:13:25.754Z,0.00
2022-09-15T18:15:53.078Z,0.40
2022-09-15T18:18:22.035Z,0.17
2022-09-15T18:20:53.031Z,0.00
2022-09-15T18:23:21.408Z,0.08
2022-09-15T18:25:49.072Z,0.00
2022-09-15T18:28:16.358Z,0.10
2022-09-15T18:30:46.706Z,0.10
2022-09-15T18:33:15.125Z,0.20
2022-09-15T18:35:43.060Z,0.10
2022-09-15T18:38:10.522Z,0.10
2022-09-15T18:40:37.627Z,0.00
2022-09-15T18:43:05.875Z,0.10
2022-09-15T18:45:33.106Z,0.03
2022-09-15T18:48:00.368Z,0.00
2022-09-15T18:54:35.056Z,0.20
2022-09-15T18:57:02.131Z,0.10
2022-09-15T18:59:30.678Z,0.20
2022-09-15T19:01:57.817Z,0.10
2022-09-15T19:04:31.074Z,0.20
2022-09-15T19:06:59.699Z,0.40
2022-09-15T19:09:26.897Z,0.10
2022-09-15T19:11:54.166Z,0.30
2022-09-15T19:14:22.465Z,0.10
2022-09-15T19:16:57.518Z,0.10
2022-09-15T19:19:27.507Z,0.10
2022-09-15T19:21:54.736Z,0.10
2022-09-15T19:24:22.924Z,0.08
2022-09-15T19:26:49.899Z,0.17
2022-09-15T19:29:16.916Z,0.20
2022-09-15T19:31:44.326Z,0.10
2022-09-15T19:34:13.875Z,0.00
2022-09-15T19:36:42.149Z,0.00
2022-09-15T19:39:12.127Z,0.00
2022-09-15T19:41:39.175Z,0.15
2022-09-15T19:44:10.589Z,0.08
2022-09-15T19:46:38.176Z,0.00
2022-09-15T19:49:08.536Z,0.10
2022-09-15T19:51:36.860Z,0.00
2022-09-15T19:54:04.930Z,0.00
2022-09-15T19:56:32.174Z,0.00
2022-09-15T19:59:03.654Z,0.00
2022-09-15T20:01:32.748Z,0.08
2022-09-15T20:04:01.856Z,0.00
2022-09-15T20:06:32.726Z,0.10
2022-09-15T20:09:00.429Z,0.00
2022-09-15T20:11:28.195Z,0.10
2022-09-15T20:13:55.619Z,0.00
2022-09-15T20:16:23.207Z,0.00
2022-09-15T20:18:51.187Z,0.20
2022-09-15T20:21:45.962Z,0.10
2022-09-15T20:24:11.204Z,0.10
2022-09-15T20:26:38.188Z,0.05
2022-09-15T20:29:05.431Z,0.00
2022-09-15T20:31:33.108Z,0.00
2022-09-15T20:34:00.926Z,0.10
2022-09-15T20:36:36.069Z,0.00
2022-09-15T20:39:04.771Z,0.00
2022-09-15T20:41:32.000Z,0.03
2022-09-15T20:43:59.077Z,0.10
2022-09-15T20:46:26.530Z,0.00
2022-09-15T20:48:53.915Z,0.00
2022-09-15T20:51:22.842Z,0.00
2022-09-15T20:53:54.296Z,0.10
2022-09-15T20:56:24.808Z,0.00
2022-09-15T20:58:56.637Z,0.00
2022-09-15T21:01:25.560Z,0.05
2022-09-15T21:03:53.414Z,0.10
2022-09-15T21:06:23.170Z,0.10
2022-09-15T21:08:50.379Z,0.35
2022-09-15T21:11:20.284Z,0.00
2022-09-15T21:13:47.607Z,0.00
2022-09-15T21:16:16.244Z,0.10
2022-09-15T21:18:43.624Z,0.03
2022-09-15T21:21:14.718Z,0.00
2022-09-15T21:23:46.901Z,0.00
2022-09-15T21:26:24.560Z,0.40
2022-09-15T21:28:51.843Z,0.00
2022-09-15T21:31:20.478Z,0.82
2022-09-15T21:33:47.991Z,0.00
2022-09-15T21:36:21.983Z,0.00
2022-09-15T21:38:50.134Z,0.00
2022-09-15T21:41:21.567Z,0.00
2022-09-15T21:43:55.378Z,0.00
2022-09-15T21:46:24.107Z,0.00
2022-09-15T21:48:51.851Z,0.00
2022-09-15T21:51:24.312Z,0.00
2022-09-15T21:53:52.995Z,0.00
2022-09-15T21:56:20.250Z,0.00
2022-09-15T21:58:47.710Z,0.00
2022-09-15T22:01:18.833Z,0.08
2022-09-15T22:03:55.891Z,0.00
2022-09-15T22:06:31.585Z,0.00
2022-09-15T22:08:59.775Z,0.00
2022-09-15T22:11:26.897Z,0.00
2022-09-15T22:13:54.067Z,0.25
2022-09-15T22:16:21.958Z,0.10
2022-09-15T22:18:48.997Z,0.00
2022-09-15T22:21:19.654Z,0.00
2022-09-15T22:23:47.272Z,0.43
2022-09-15T22:26:16.586Z,0.00
2022-09-15T22:28:43.714Z,0.00
2022-09-15T22:31:11.920Z,0.00
2022-09-15T22:33:41.332Z,0.00
2022-09-15T22:36:12.211Z,0.00
2022-09-15T22:38:39.305Z,0.00
2022-09-15T22:41:09.247Z,0.00
2022-09-15T22:43:36.745Z,0.08
2022-09-15T22:46:04.080Z,0.10
2022-09-15T22:48:31.146Z,0.10
2022-09-15T22:50:58.434Z,0.10
2022-09-15T22:53:25.440Z,0.00
2022-09-15T22:55:53.057Z,0.10
2022-09-15T22:58:20.357Z,0.00
2022-09-15T23:00:47.437Z,0.20
2022-09-15T23:03:14.455Z,0.10
2022-09-15T23:05:41.469Z,0.10
2022-09-15T23:08:09.261Z,0.03
2022-09-15T23:10:36.696Z,0.10
2022-09-15T23:13:03.608Z,0.00
2022-09-15T23:15:31.035Z,0.10
2022-09-15T23:17:57.963Z,0.00
2022-09-15T23:20:24.926Z,0.20
2022-09-15T23:22:52.510Z,0.00
2022-09-15T23:25:19.486Z,0.10
2022-09-15T23:27:46.542Z,0.10
2022-09-15T23:30:13.655Z,0.20
2022-09-15T23:32:40.577Z,0.77
2022-09-15T23:35:08.169Z,0.00
2022-09-15T23:37:35.234Z,0.10
2022-09-15T23:40:02.258Z,0.00
2022-09-15T23:42:29.381Z,0.00
2022-09-15T23:44:57.277Z,0.25
2022-09-15T23:47:24.228Z,0.00
2022-09-15T23:49:51.133Z,0.47
2022-09-15T23:52:18.077Z,0.00
2022-09-15T23:54:45.020Z,0.00
2022-09-15T23:57:11.905Z,0.30
2022-09-15T23:59:38.867Z,0.00
